JRF weather

Kalaeloa Airport
Kapolei, Hawaii, United States

Public forecast

Using degrees Fahrenheit for public forecast. Weather courtesy of forecast.io.

Current aviation weather report (METAR) for Kalaeloa Airport

Retrieved 2020/05/30 04:53 UTC (36 minutes ago):

PHJR 300453Z VRB04KT 10SM BKN055 26/18 A3014 RMK AO2 SLP211 T02610178

Aviation forecast (TAF) for Kalaeloa Airport

Retrieved 2020-05-30 00:39 UTC (5 hours ago):

TAF PHJR 292333Z 3000/3024 09009G14KT P6SM FEW030 SCT060 FM300500 05004KT P6SM FEW025 SCT060 FM302000 09009G14KT P6SM FEW030 SCT060